Time;durP1;ratioP1;P1;durP2;ratioP2;P2;SDS_P1;SDS_P2;PMS_P1;PMS_P2;Temp;Humidity;BMP_temperature;BMP_pressure;BME280_temperature;BME280_humidity;BME280_pressure;Samples;Min_cycle;Max_cycle;Signal;HPM_P1;HPM_P2
2023/07/19 00:01:04;;;;;;;7.63;4.38;;;17.40;99.90;;;;;;5036170;28;20125;-58
2023/07/19 00:03:30;;;;;;;8.65;5.43;;;17.40;99.90;;;;;;5030650;28;20037;-59
2023/07/19 00:05:56;;;;;;;8.20;5.50;;;17.40;99.90;;;;;;5029758;28;20052;-59
2023/07/19 00:08:21;;;;;;;5.47;4.00;;;17.40;99.90;;;;;;5035514;28;20407;-59
2023/07/19 00:10:47;;;;;;;9.15;5.45;;;17.40;99.90;;;;;;5015837;28;20045;-58
2023/07/19 00:13:13;;;;;;;8.57;5.03;;;17.40;99.90;;;;;;5020028;28;20041;-59
2023/07/19 00:15:39;;;;;;;6.88;5.40;;;17.40;99.90;;;;;;4999806;28;20088;-59
2023/07/19 00:18:05;;;;;;;6.65;4.78;;;17.40;99.90;;;;;;5027795;28;20033;-58
2023/07/19 00:20:31;;;;;;;9.63;5.65;;;17.40;99.90;;;;;;5041008;28;20041;-59
2023/07/19 00:22:56;;;;;;;6.03;5.40;;;17.40;99.90;;;;;;5036255;28;20045;-58
2023/07/19 00:25:22;;;;;;;8.13;5.70;;;17.40;99.90;;;;;;5026662;28;20138;-59
2023/07/19 00:27:49;;;;;;;6.88;5.63;;;17.40;99.90;;;;;;5031877;28;20040;-59
2023/07/19 00:30:14;;;;;;;8.82;5.70;;;17.40;99.90;;;;;;5031103;28;20611;-59
2023/07/19 00:32:41;;;;;;;11.98;5.40;;;17.30;99.90;;;;;;5033084;28;20051;-59
2023/07/19 00:35:07;;;;;;;7.93;5.32;;;17.30;99.90;;;;;;5007358;28;20507;-58
2023/07/19 00:37:37;;;;;;;8.80;5.35;;;17.30;99.90;;;;;;5032118;28;20037;-57
2023/07/19 00:40:04;;;;;;;8.77;5.35;;;17.30;99.90;;;;;;5023484;28;20094;-58
2023/07/19 00:42:30;;;;;;;6.13;5.18;;;17.30;99.90;;;;;;5031502;28;20120;-58
2023/07/19 00:44:56;;;;;;;5.32;4.82;;;17.30;99.90;;;;;;5031836;28;20120;-59
2023/07/19 00:47:22;;;;;;;9.13;5.10;;;17.30;99.90;;;;;;5038972;28;20586;-59
2023/07/19 00:49:48;;;;;;;4.88;4.10;;;17.30;99.90;;;;;;5026684;28;20472;-58
2023/07/19 00:52:14;;;;;;;6.05;4.45;;;17.30;99.90;;;;;;5013869;28;20096;-58
2023/07/19 00:54:40;;;;;;;9.27;6.05;;;17.40;99.90;;;;;;5007919;28;20419;-58
2023/07/19 00:57:07;;;;;;;6.63;4.78;;;17.30;99.90;;;;;;5042327;28;20025;-57
2023/07/19 00:59:34;;;;;;;6.55;4.85;;;17.30;99.90;;;;;;5016790;28;20484;-56
2023/07/19 01:01:59;;;;;;;6.57;4.90;;;17.30;99.90;;;;;;5030640;28;20072;-57
2023/07/19 01:04:27;;;;;;;6.93;4.72;;;17.30;99.90;;;;;;5036229;28;20530;-56
2023/07/19 01:06:53;;;;;;;7.78;5.13;;;17.40;99.90;;;;;;5031312;28;20436;-55
2023/07/19 01:09:18;;;;;;;6.47;5.80;;;17.40;99.90;;;;;;5029969;28;20044;-58
2023/07/19 01:11:44;;;;;;;6.25;5.13;;;17.30;99.90;;;;;;5036571;28;20106;-58
2023/07/19 01:14:10;;;;;;;8.18;5.30;;;17.30;99.90;;;;;;5030818;28;20041;-58
2023/07/19 01:16:36;;;;;;;7.80;5.55;;;17.30;99.90;;;;;;5011518;28;20043;-58
2023/07/19 01:19:02;;;;;;;7.00;4.80;;;17.30;99.90;;;;;;5008340;28;20561;-59
2023/07/19 01:21:28;;;;;;;7.72;5.25;;;17.30;99.90;;;;;;5030752;28;20466;-58
2023/07/19 01:23:54;;;;;;;6.07;4.18;;;17.30;99.90;;;;;;5027127;28;20064;-58
2023/07/19 01:26:19;;;;;;;33.42;7.82;;;17.30;99.90;;;;;;5028510;28;20285;-59
2023/07/19 01:28:45;;;;;;;8.82;6.00;;;17.30;99.90;;;;;;5013115;28;20044;-59
2023/07/19 01:31:13;;;;;;;7.60;5.13;;;17.20;99.90;;;;;;5001520;28;20041;-59
2023/07/19 01:33:38;;;;;;;7.93;6.00;;;17.20;99.90;;;;;;5028734;28;20045;-58
2023/07/19 01:36:04;;;;;;;7.45;4.80;;;17.20;99.90;;;;;;5047696;28;20106;-59
2023/07/19 01:38:30;;;;;;;6.22;4.97;;;17.20;99.90;;;;;;5009437;28;20037;-58
2023/07/19 01:40:56;;;;;;;6.40;4.78;;;17.30;99.90;;;;;;5044052;28;20025;-59
2023/07/19 01:43:22;;;;;;;5.10;4.60;;;17.20;99.90;;;;;;5045519;28;20040;-58
2023/07/19 01:45:47;;;;;;;8.05;5.20;;;17.20;99.90;;;;;;5032522;28;20518;-58
2023/07/19 01:48:13;;;;;;;6.75;4.28;;;17.20;99.90;;;;;;5024887;28;20052;-60
2023/07/19 01:50:39;;;;;;;6.90;4.50;;;17.20;99.90;;;;;;5025064;28;20052;-57
2023/07/19 01:53:04;;;;;;;7.97;5.75;;;17.20;99.90;;;;;;5012451;28;20049;-58
2023/07/19 01:55:30;;;;;;;7.70;5.78;;;17.10;99.90;;;;;;5013219;28;20045;-59
2023/07/19 01:57:56;;;;;;;7.30;5.80;;;17.10;99.90;;;;;;5017491;28;20041;-59
2023/07/19 02:00:22;;;;;;;6.75;4.85;;;17.00;99.90;;;;;;5042174;28;20064;-58
2023/07/19 02:02:47;;;;;;;6.43;5.22;;;17.00;99.90;;;;;;5047203;28;20033;-59
2023/07/19 02:05:13;;;;;;;9.30;6.20;;;17.00;99.90;;;;;;5029157;28;20032;-59
2023/07/19 02:07:39;;;;;;;8.18;5.65;;;17.00;99.90;;;;;;5025860;28;20040;-59
2023/07/19 02:10:05;;;;;;;5.90;5.30;;;17.00;99.90;;;;;;5027121;28;20488;-59
2023/07/19 02:12:31;;;;;;;8.65;5.60;;;17.00;99.90;;;;;;5021785;28;20037;-59
2023/07/19 02:14:56;;;;;;;6.75;5.35;;;17.00;99.90;;;;;;5049396;28;20522;-59
2023/07/19 02:17:22;;;;;;;7.72;5.50;;;17.00;99.90;;;;;;5009815;28;20063;-54
2023/07/19 02:19:48;;;;;;;8.38;6.15;;;17.00;99.90;;;;;;5035518;28;20049;-57
2023/07/19 02:22:15;;;;;;;6.45;5.85;;;17.00;99.90;;;;;;5029813;28;20047;-58
2023/07/19 02:24:41;;;;;;;9.98;6.68;;;16.90;99.90;;;;;;5027335;28;20126;-59
2023/07/19 02:27:07;;;;;;;9.90;6.60;;;17.00;99.90;;;;;;5042466;28;20492;-58
2023/07/19 02:29:33;;;;;;;7.30;5.82;;;17.00;99.90;;;;;;5025636;28;20060;-58
2023/07/19 02:31:59;;;;;;;7.22;5.65;;;16.90;99.90;;;;;;5023453;28;20036;-59
2023/07/19 02:34:24;;;;;;;7.10;5.80;;;17.00;99.90;;;;;;5030037;28;20049;-58
2023/07/19 02:36:50;;;;;;;9.07;6.70;;;17.00;99.90;;;;;;5031897;28;20048;-59
2023/07/19 02:39:16;;;;;;;7.60;6.18;;;17.00;99.90;;;;;;5033932;28;20389;-59
2023/07/19 02:41:42;;;;;;;7.10;5.78;;;17.00;99.90;;;;;;5010638;28;20091;-59
2023/07/19 02:44:08;;;;;;;8.70;5.88;;;17.00;99.90;;;;;;5030580;28;20364;-59
2023/07/19 02:46:33;;;;;;;9.90;6.93;;;17.00;99.90;;;;;;5027397;28;20051;-59
2023/07/19 02:48:59;;;;;;;8.45;5.18;;;17.00;99.90;;;;;;5010618;28;20510;-57
2023/07/19 02:51:25;;;;;;;9.48;6.18;;;17.00;99.90;;;;;;5019270;28;20592;-59
2023/07/19 02:53:51;;;;;;;6.90;5.80;;;17.10;99.90;;;;;;5040318;28;20040;-58
2023/07/19 02:56:16;;;;;;;7.82;6.65;;;17.10;99.90;;;;;;5009493;28;20179;-59
2023/07/19 02:58:42;;;;;;;7.43;6.20;;;17.00;99.90;;;;;;5008165;28;20112;-57
2023/07/19 03:01:08;;;;;;;7.70;6.18;;;17.00;99.90;;;;;;5007414;28;20037;-58
2023/07/19 03:03:34;;;;;;;9.98;6.80;;;17.00;99.90;;;;;;5028133;28;20032;-58
2023/07/19 03:06:02;;;;;;;8.25;6.68;;;17.00;99.90;;;;;;5014185;28;20523;-58
2023/07/19 03:08:28;;;;;;;10.85;7.03;;;17.00;99.90;;;;;;5010829;28;20037;-57
2023/07/19 03:10:54;;;;;;;7.72;6.93;;;17.00;99.90;;;;;;5025943;28;20072;-59
2023/07/19 03:13:20;;;;;;;9.60;7.53;;;16.90;99.90;;;;;;5044832;28;20485;-56
2023/07/19 03:15:47;;;;;;;9.10;7.15;;;16.90;99.90;;;;;;5026804;28;20183;-59
2023/07/19 03:18:13;;;;;;;9.55;7.00;;;16.90;99.90;;;;;;5018332;28;20032;-59
2023/07/19 03:21:16;;;;;;;10.15;8.02;;;16.90;99.90;;;;;;5037364;28;20171;-59
2023/07/19 03:23:42;;;;;;;10.48;7.95;;;16.90;99.90;;;;;;5045866;28;20047;-57
2023/07/19 03:26:08;;;;;;;8.98;7.28;;;16.90;99.90;;;;;;5024402;28;20041;-59
2023/07/19 03:28:33;;;;;;;8.48;6.88;;;16.80;99.90;;;;;;5014091;28;20515;-57
2023/07/19 03:30:59;;;;;;;12.38;7.38;;;16.80;99.90;;;;;;5029217;28;20549;-59
2023/07/19 03:33:26;;;;;;;8.05;6.50;;;16.80;99.90;;;;;;5028106;28;20045;-59
2023/07/19 03:35:51;;;;;;;7.28;5.82;;;16.90;99.90;;;;;;5032466;28;20099;-57
2023/07/19 03:38:21;;;;;;;8.10;6.07;;;16.90;99.90;;;;;;5051725;28;20072;-59
2023/07/19 03:40:46;;;;;;;7.18;5.50;;;16.90;99.90;;;;;;5010692;28;20133;-58
2023/07/19 03:43:12;;;;;;;8.35;4.93;;;16.90;99.90;;;;;;5031160;28;20131;-58
2023/07/19 03:45:39;;;;;;;7.97;5.68;;;16.90;99.90;;;;;;5033701;28;20249;-58
2023/07/19 03:48:05;;;;;;;12.25;5.90;;;16.80;99.90;;;;;;5029227;28;20298;-59
2023/07/19 03:50:31;;;;;;;7.43;4.55;;;16.90;99.90;;;;;;5033800;28;20100;-58
2023/07/19 03:52:57;;;;;;;10.18;4.53;;;16.90;99.90;;;;;;5023871;28;20047;-57
2023/07/19 03:55:23;;;;;;;4.93;3.67;;;16.90;99.90;;;;;;5012399;28;20069;-59
2023/07/19 03:57:48;;;;;;;6.57;4.28;;;16.90;99.90;;;;;;5026299;28;20041;-58
2023/07/19 04:00:14;;;;;;;5.93;3.85;;;17.00;99.90;;;;;;5026533;28;20111;-58
2023/07/19 04:02:40;;;;;;;7.03;4.43;;;17.00;99.90;;;;;;5048237;28;20049;-59
2023/07/19 04:05:06;;;;;;;6.78;4.22;;;16.90;99.90;;;;;;5031564;28;20126;-57
2023/07/19 04:07:32;;;;;;;5.13;2.90;;;17.00;99.90;;;;;;5040742;28;20083;-59
2023/07/19 04:09:57;;;;;;;6.22;3.70;;;17.00;99.90;;;;;;5048865;28;20116;-58
2023/07/19 04:12:23;;;;;;;5.43;3.15;;;16.90;99.90;;;;;;5031618;28;20112;-59
2023/07/19 04:14:49;;;;;;;7.47;3.90;;;17.00;99.90;;;;;;5032171;28;20032;-59
2023/07/19 04:17:14;;;;;;;6.50;3.65;;;16.90;99.90;;;;;;5014272;28;20123;-58
2023/07/19 04:19:40;;;;;;;8.57;3.97;;;16.90;99.90;;;;;;5051332;28;20060;-59
2023/07/19 04:22:06;;;;;;;6.40;3.72;;;17.00;99.90;;;;;;5040088;28;20040;-58
2023/07/19 04:24:32;;;;;;;5.53;3.40;;;16.90;99.90;;;;;;5029702;28;20400;-58
2023/07/19 04:26:57;;;;;;;5.32;3.40;;;16.90;99.90;;;;;;5021840;28;20037;-59
2023/07/19 04:29:23;;;;;;;5.38;3.42;;;16.90;99.90;;;;;;5030306;28;20412;-59
2023/07/19 04:31:49;;;;;;;8.68;4.90;;;16.90;99.90;;;;;;5026329;28;21746;-58
2023/07/19 04:34:15;;;;;;;6.18;4.03;;;16.90;99.90;;;;;;5039957;28;20111;-59
2023/07/19 04:36:43;;;;;;;4.68;3.80;;;16.90;99.90;;;;;;5027955;28;20048;-58
2023/07/19 04:39:09;;;;;;;6.60;4.13;;;16.90;99.90;;;;;;5014168;28;20048;-58
2023/07/19 04:41:34;;;;;;;8.50;4.60;;;16.90;99.90;;;;;;5022704;28;20072;-59
2023/07/19 04:44:00;;;;;;;7.90;4.45;;;16.90;99.90;;;;;;5012983;28;20528;-57
2023/07/19 04:46:26;;;;;;;6.70;4.32;;;17.00;99.90;;;;;;4997602;28;20150;-58
2023/07/19 04:48:51;;;;;;;7.47;5.25;;;17.00;99.90;;;;;;5033992;28;20086;-58
2023/07/19 04:51:59;;;;;;;6.28;5.13;;;17.00;99.90;;;;;;5038967;28;20126;-58
2023/07/19 04:54:25;;;;;;;7.93;5.50;;;17.10;99.90;;;;;;5025100;28;20053;-59
2023/07/19 04:56:53;;;;;;;5.25;4.75;;;17.00;99.90;;;;;;5028006;28;20033;-59
2023/07/19 04:59:20;;;;;;;7.40;5.05;;;17.00;99.90;;;;;;5024700;28;20037;-59
2023/07/19 05:01:45;;;;;;;8.63;5.72;;;17.00;99.90;;;;;;5024475;28;20045;-57
2023/07/19 05:04:12;;;;;;;10.38;5.75;;;17.00;99.90;;;;;;5022676;28;20095;-59
2023/07/19 05:06:38;;;;;;;10.48;6.10;;;17.00;99.90;;;;;;5026165;28;20044;-58
2023/07/19 05:09:05;;;;;;;9.13;5.60;;;17.00;99.90;;;;;;5028193;28;20051;-59
2023/07/19 05:11:31;;;;;;;7.80;5.45;;;17.00;99.90;;;;;;5036617;28;20049;-58
2023/07/19 05:13:57;;;;;;;10.52;5.57;;;16.90;99.90;;;;;;5026514;28;20049;-59
2023/07/19 05:16:23;;;;;;;8.02;4.90;;;16.90;99.90;;;;;;5008259;28;20046;-57
2023/07/19 05:18:48;;;;;;;8.35;5.95;;;16.80;99.90;;;;;;4997375;28;20503;-59
2023/07/19 05:21:14;;;;;;;8.93;6.07;;;16.80;99.90;;;;;;5047445;28;20488;-57
2023/07/19 05:23:41;;;;;;;7.78;4.90;;;16.80;99.90;;;;;;5011785;28;20120;-58
2023/07/19 05:26:06;;;;;;;10.25;5.28;;;16.70;99.90;;;;;;5036621;28;20052;-59
2023/07/19 05:28:32;;;;;;;9.68;4.38;;;16.70;99.90;;;;;;5006415;28;20041;-59
2023/07/19 05:31:05;;;;;;;4.95;2.90;;;16.70;99.90;;;;;;5026679;28;20142;-59
2023/07/19 05:33:34;;;;;;;5.47;2.53;;;16.80;99.90;;;;;;5022495;28;20554;-59
2023/07/19 05:36:03;;;;;;;9.27;3.20;;;16.70;99.90;;;;;;5013955;28;20096;-59
2023/07/19 05:38:29;;;;;;;8.18;3.60;;;16.70;99.90;;;;;;5005844;28;20080;-59
2023/07/19 05:41:13;;;;;;;6.50;3.53;;;16.60;99.90;;;;;;5014263;28;20107;-58
2023/07/19 05:43:39;;;;;;;9.15;4.05;;;16.50;99.90;;;;;;5049539;28;20110;-58
2023/07/19 05:46:08;;;;;;;7.43;4.13;;;16.50;99.90;;;;;;5034375;28;20470;-59
2023/07/19 05:48:34;;;;;;;9.00;3.67;;;16.50;99.90;;;;;;5030945;28;20044;-58
2023/07/19 05:51:01;;;;;;;5.63;3.33;;;16.40;99.90;;;;;;5046321;28;20048;-61
2023/07/19 05:53:27;;;;;;;9.45;3.95;;;16.40;99.90;;;;;;5029993;28;20145;-58
2023/07/19 05:55:53;;;;;;;6.50;2.97;;;16.40;99.90;;;;;;5009183;28;20159;-58
2023/07/19 05:58:20;;;;;;;10.27;3.58;;;16.40;99.90;;;;;;5009333;28;20053;-57
2023/07/19 06:00:47;;;;;;;5.82;2.78;;;16.40;99.90;;;;;;5043912;28;20036;-58
2023/07/19 06:03:16;;;;;;;8.32;3.92;;;16.40;99.90;;;;;;5027542;28;20033;-57
2023/07/19 06:05:45;;;;;;;6.75;3.00;;;16.40;99.90;;;;;;5010211;28;20037;-60
2023/07/19 06:08:12;;;;;;;7.22;4.47;;;16.50;99.90;;;;;;5022329;28;20114;-58
2023/07/19 06:10:38;;;;;;;6.93;3.55;;;16.50;99.90;;;;;;5020851;28;20099;-59
2023/07/19 06:13:05;;;;;;;7.00;3.50;;;16.50;99.90;;;;;;5024492;28;20044;-58
2023/07/19 06:15:34;;;;;;;5.97;3.47;;;16.60;99.90;;;;;;5028632;28;20514;-58
2023/07/19 06:18:00;;;;;;;8.80;3.63;;;16.60;99.90;;;;;;5046961;28;20064;-61
2023/07/19 06:20:27;;;;;;;6.88;3.17;;;16.60;99.90;;;;;;5030279;28;20052;-58
2023/07/19 06:22:52;;;;;;;7.18;3.50;;;16.70;99.90;;;;;;5030044;28;20040;-57
2023/07/19 06:25:18;;;;;;;3.60;2.55;;;16.70;99.90;;;;;;5029149;28;20362;-57
2023/07/19 06:27:44;;;;;;;7.38;3.20;;;16.80;99.90;;;;;;5030384;28;20037;-57
2023/07/19 06:30:10;;;;;;;8.35;3.50;;;16.80;99.90;;;;;;5025040;28;20435;-58
2023/07/19 06:32:36;;;;;;;4.50;3.15;;;16.90;99.90;;;;;;5025642;28;20460;-56
2023/07/19 06:35:03;;;;;;;6.45;3.20;;;16.90;99.90;;;;;;5027549;28;20315;-57
2023/07/19 06:37:29;;;;;;;5.78;2.60;;;16.90;99.90;;;;;;5015200;28;20525;-59
2023/07/19 06:39:54;;;;;;;5.38;3.55;;;16.90;99.90;;;;;;5048728;28;20053;-58
2023/07/19 06:42:20;;;;;;;4.13;2.10;;;16.90;99.90;;;;;;5030024;28;20048;-57
2023/07/19 06:44:47;;;;;;;5.78;2.63;;;17.00;99.90;;;;;;5046749;28;20083;-58
2023/07/19 06:47:14;;;;;;;7.45;2.78;;;17.00;99.90;;;;;;5043276;28;20056;-58
2023/07/19 06:49:41;;;;;;;6.65;3.25;;;17.00;99.90;;;;;;5014175;28;20041;-59
2023/07/19 06:52:07;;;;;;;7.45;2.42;;;17.00;99.90;;;;;;5027031;28;20040;-57
2023/07/19 06:54:33;;;;;;;5.07;2.55;;;17.00;99.90;;;;;;5032269;28;20049;-58
2023/07/19 06:56:58;;;;;;;4.07;2.05;;;17.00;99.90;;;;;;5016238;28;20044;-57
2023/07/19 06:59:24;;;;;;;4.65;2.10;;;17.10;99.90;;;;;;5034234;28;20052;-59
2023/07/19 07:01:50;;;;;;;5.30;2.38;;;17.10;99.90;;;;;;5058675;28;20055;-58
2023/07/19 07:04:16;;;;;;;3.92;1.92;;;17.10;99.90;;;;;;5021871;28;20037;-58
2023/07/19 07:06:41;;;;;;;4.05;2.00;;;17.20;99.90;;;;;;5031850;28;20040;-59
2023/07/19 07:09:07;;;;;;;6.10;1.88;;;17.20;99.90;;;;;;5031195;28;20533;-58
2023/07/19 07:11:33;;;;;;;4.75;2.15;;;17.30;99.90;;;;;;5011940;28;20060;-59
2023/07/19 07:13:59;;;;;;;4.93;2.00;;;17.40;99.90;;;;;;5019345;28;20079;-58
2023/07/19 07:16:24;;;;;;;3.83;2.00;;;17.40;99.90;;;;;;5037463;23;20488;-52
2023/07/19 07:18:50;;;;;;;7.00;1.98;;;17.50;99.90;;;;;;5030589;28;20466;-50
2023/07/19 07:21:16;;;;;;;4.43;1.60;;;17.50;99.90;;;;;;5015354;28;20040;-53
2023/07/19 07:23:41;;;;;;;5.00;1.70;;;17.60;99.90;;;;;;5046246;28;20148;-53
2023/07/19 07:26:07;;;;;;;5.43;2.22;;;17.60;99.90;;;;;;5046899;28;20475;-51
2023/07/19 07:28:33;;;;;;;5.88;1.85;;;17.60;99.90;;;;;;5027298;28;20046;-50
2023/07/19 07:31:06;;;;;;;4.05;2.25;;;17.70;99.90;;;;;;5008692;28;20037;-51
2023/07/19 07:33:32;;;;;;;4.88;2.00;;;17.70;99.90;;;;;;5023454;28;20070;-51
2023/07/19 07:35:57;;;;;;;7.82;3.50;;;17.90;99.90;;;;;;5048038;28;20036;-52
2023/07/19 07:38:23;;;;;;;3.90;2.42;;;18.10;99.90;;;;;;5030490;28;20044;-51
2023/07/19 07:40:49;;;;;;;3.50;2.17;;;18.20;99.90;;;;;;5028967;28;20044;-54
2023/07/19 07:43:14;;;;;;;3.95;2.25;;;18.40;99.90;;;;;;5043949;28;20052;-52
2023/07/19 07:45:40;;;;;;;5.47;2.22;;;18.50;99.90;;;;;;5027558;28;20056;-51
2023/07/19 07:48:06;;;;;;;5.18;1.77;;;18.60;99.90;;;;;;5046138;28;20311;-51
2023/07/19 07:50:32;;;;;;;4.22;1.95;;;18.60;99.90;;;;;;5034007;28;20048;-50
2023/07/19 07:52:58;;;;;;;6.85;2.22;;;18.80;99.90;;;;;;5032785;28;20083;-51
2023/07/19 07:55:24;;;;;;;3.15;1.70;;;18.90;99.90;;;;;;5041919;28;20488;-52
2023/07/19 07:57:49;;;;;;;3.72;1.90;;;18.90;99.90;;;;;;5040571;28;20471;-51
2023/07/19 08:00:17;;;;;;;4.60;2.10;;;18.80;99.90;;;;;;5027424;28;20087;-54
2023/07/19 08:02:43;;;;;;;5.45;2.47;;;18.60;99.90;;;;;;5038879;28;20033;-56
2023/07/19 08:05:09;;;;;;;5.05;1.70;;;18.60;99.90;;;;;;5028140;28;20041;-52
2023/07/19 08:07:35;;;;;;;5.30;1.90;;;18.70;99.90;;;;;;5022881;28;20067;-51
2023/07/19 08:10:01;;;;;;;6.82;2.53;;;18.80;99.90;;;;;;5049192;28;20041;-51
2023/07/19 08:12:28;;;;;;;4.25;1.63;;;18.70;99.90;;;;;;5026721;28;20044;-51
2023/07/19 08:14:54;;;;;;;5.00;1.60;;;18.60;99.90;;;;;;5049932;28;20080;-52
2023/07/19 08:17:19;;;;;;;3.45;1.55;;;18.60;99.90;;;;;;5023858;28;20076;-54
2023/07/19 08:19:45;;;;;;;6.15;1.30;;;18.60;99.90;;;;;;5047364;28;20463;-55
2023/07/19 08:22:25;;;;;;;3.88;1.30;;;18.70;99.90;;;;;;5044833;28;20037;-52
2023/07/19 08:24:50;;;;;;;3.25;1.52;;;19.00;99.90;;;;;;5043683;28;20525;-55
2023/07/19 08:27:16;;;;;;;6.63;1.90;;;19.10;99.90;;;;;;5045530;28;20075;-55
2023/07/19 08:29:42;;;;;;;4.85;1.63;;;19.20;99.90;;;;;;5041942;28;20117;-52
2023/07/19 08:32:07;;;;;;;2.97;1.25;;;19.30;99.90;;;;;;5012383;28;20511;-54
2023/07/19 08:34:34;;;;;;;4.18;1.50;;;19.40;99.90;;;;;;5046649;28;20033;-51
2023/07/19 08:37:00;;;;;;;4.38;1.77;;;19.60;99.90;;;;;;5045857;28;20048;-53
2023/07/19 08:39:27;;;;;;;4.20;1.15;;;19.60;99.90;;;;;;5042691;28;20041;-56
2023/07/19 08:41:53;;;;;;;2.83;1.05;;;19.50;99.90;;;;;;5030381;28;20043;-51
2023/07/19 08:44:23;;;;;;;4.93;1.90;;;19.40;99.90;;;;;;5027460;28;20068;-56
2023/07/19 08:46:49;;;;;;;7.35;1.50;;;19.40;99.90;;;;;;5043626;28;20049;-55
2023/07/19 08:49:18;;;;;;;5.93;1.80;;;19.50;99.90;;;;;;5025630;28;20037;-55
2023/07/19 08:51:45;;;;;;;6.32;2.20;;;19.40;99.90;;;;;;5045173;28;20617;-55
2023/07/19 08:54:12;;;;;;;3.80;1.90;;;19.20;99.90;;;;;;5040653;28;20037;-55
2023/07/19 08:56:38;;;;;;;4.97;1.70;;;19.20;99.90;;;;;;5025690;28;20037;-55
2023/07/19 08:59:06;;;;;;;7.28;2.53;;;19.00;99.90;;;;;;5019479;28;20040;-54
2023/07/19 09:01:32;;;;;;;5.00;2.20;;;19.10;99.90;;;;;;5039729;28;20033;-56
2023/07/19 09:03:57;;;;;;;6.45;2.00;;;19.40;99.90;;;;;;5042735;28;20037;-55
2023/07/19 09:06:33;;;;;;;7.32;2.25;;;19.50;99.90;;;;;;5031681;28;20507;-52
2023/07/19 09:09:00;;;;;;;3.90;1.95;;;19.50;99.90;;;;;;5042122;28;20037;-54
2023/07/19 09:11:26;;;;;;;2.90;1.80;;;19.30;99.90;;;;;;5029980;28;20041;-55
2023/07/19 09:13:56;;;;;;;5.78;1.85;;;19.30;99.90;;;;;;5040831;28;20488;-52
2023/07/19 09:16:29;;;;;;;5.60;1.92;;;19.20;99.90;;;;;;5007090;28;20063;-55
2023/07/19 09:19:00;;;;;;;4.97;1.30;;;19.20;99.90;;;;;;5039580;28;20037;-55
2023/07/19 09:21:38;;;;;;;4.03;1.45;;;19.20;99.90;;;;;;5027867;28;20116;-55
2023/07/19 09:24:06;;;;;;;4.05;1.55;;;19.30;99.90;;;;;;5020004;28;20043;-55
2023/07/19 09:26:52;;;;;;;6.57;1.60;;;19.40;99.90;;;;;;5044809;28;20047;-55
2023/07/19 09:29:21;;;;;;;6.03;1.88;;;19.60;99.90;;;;;;5042078;28;20040;-52
2023/07/19 09:31:58;;;;;;;4.90;2.40;;;19.60;99.90;;;;;;5039818;28;20044;-53
2023/07/19 09:34:29;;;;;;;8.57;2.40;;;19.70;99.90;;;;;;5038745;28;20046;-55
2023/07/19 09:36:55;;;;;;;4.03;2.03;;;19.80;99.90;;;;;;5017245;28;20041;-54
2023/07/19 09:39:22;;;;;;;3.55;1.90;;;19.90;99.90;;;;;;5045084;28;20044;-55
2023/07/19 09:41:48;;;;;;;7.15;2.17;;;19.90;99.90;;;;;;5008431;28;20492;-55
2023/07/19 09:44:18;;;;;;;8.02;2.40;;;19.80;99.90;;;;;;5027152;28;20056;-56
2023/07/19 09:46:44;;;;;;;6.03;2.30;;;19.80;99.90;;;;;;5039393;28;20064;-55
2023/07/19 09:49:11;;;;;;;4.70;2.00;;;19.50;99.90;;;;;;5024284;28;20070;-55
2023/07/19 09:51:42;;;;;;;4.65;2.17;;;19.50;99.90;;;;;;5021494;28;20047;-55
2023/07/19 09:54:13;;;;;;;3.92;2.20;;;19.30;99.90;;;;;;5039000;28;20041;-55
2023/07/19 09:56:40;;;;;;;6.78;2.47;;;19.50;99.90;;;;;;5028655;28;20037;-55
2023/07/19 09:59:16;;;;;;;6.07;2.53;;;19.70;99.90;;;;;;5008228;28;20040;-55
2023/07/19 10:01:43;;;;;;;5.10;2.42;;;19.80;99.90;;;;;;5040838;28;20034;-54
2023/07/19 10:04:23;;;;;;;5.00;2.28;;;19.70;99.90;;;;;;5040671;28;20045;-55
2023/07/19 10:06:49;;;;;;;7.00;2.80;;;19.70;99.90;;;;;;5031316;28;20084;-56
2023/07/19 10:09:21;;;;;;;4.65;2.20;;;19.60;99.90;;;;;;5045935;28;20518;-55
2023/07/19 10:11:49;;;;;;;5.68;2.30;;;19.60;99.90;;;;;;5024499;28;20182;-55
2023/07/19 10:14:26;;;;;;;4.53;2.60;;;19.60;99.90;;;;;;5037902;28;20033;-55
2023/07/19 10:17:03;;;;;;;5.35;2.60;;;19.50;99.90;;;;;;5020055;28;20052;-55
2023/07/19 10:19:29;;;;;;;5.30;2.88;;;19.40;99.90;;;;;;5036362;28;20045;-54
2023/07/19 10:22:04;;;;;;;6.43;2.20;;;19.50;99.90;;;;;;5008768;28;20049;-56
2023/07/19 10:24:32;;;;;;;4.97;2.97;;;19.60;99.90;;;;;;5042434;28;20518;-55
2023/07/19 10:27:06;;;;;;;8.23;2.17;;;19.70;99.90;;;;;;5016442;28;20049;-55
2023/07/19 10:29:38;;;;;;;4.95;1.83;;;19.80;99.90;;;;;;5023530;28;20484;-55
2023/07/19 10:32:04;;;;;;;4.22;1.80;;;20.00;99.90;;;;;;5042359;28;20527;-56
2023/07/19 10:34:30;;;;;;;5.55;2.30;;;20.10;99.90;;;;;;5024778;28;20049;-52
2023/07/19 10:37:04;;;;;;;3.30;1.80;;;20.00;99.90;;;;;;5046062;28;20033;-54
2023/07/19 10:39:32;;;;;;;3.83;1.65;;;20.00;99.90;;;;;;5046381;28;20045;-56
2023/07/19 10:41:59;;;;;;;3.10;1.20;;;19.90;99.90;;;;;;4993413;28;20120;-54
2023/07/19 10:44:28;;;;;;;2.95;1.45;;;20.00;99.90;;;;;;5044661;28;20512;-55
2023/07/19 10:46:55;;;;;;;6.60;1.52;;;20.10;99.90;;;;;;5043251;28;20056;-55
2023/07/19 10:49:24;;;;;;;3.42;1.67;;;20.40;99.90;;;;;;5000190;28;20436;-54
2023/07/19 10:51:58;;;;;;;3.88;1.60;;;20.80;99.90;;;;;;5005848;28;20045;-55
2023/07/19 10:55:16;;;;;;;3.60;1.40;;;20.80;99.30;;;;;;5046140;28;20090;-55
2023/07/19 10:57:42;;;;;;;2.28;1.52;;;21.00;99.90;;;;;;5013959;28;20045;-55
2023/07/19 11:00:12;;;;;;;3.42;1.40;;;21.10;99.90;;;;;;5005303;28;20496;-55
2023/07/19 11:02:39;;;;;;;3.95;1.58;;;20.80;99.40;;;;;;5040865;28;20047;-55
2023/07/19 11:05:07;;;;;;;3.53;1.83;;;20.80;99.90;;;;;;5044948;28;20094;-54
2023/07/19 11:07:33;;;;;;;4.10;1.65;;;20.80;99.80;;;;;;5025261;28;20084;-56
2023/07/19 11:10:01;;;;;;;3.30;1.30;;;20.60;99.90;;;;;;5031981;28;20807;-54
2023/07/19 11:12:27;;;;;;;3.85;1.75;;;20.60;99.90;;;;;;5039801;28;20551;-55
2023/07/19 11:15:01;;;;;;;2.97;1.60;;;20.40;99.90;;;;;;5022145;28;20044;-56
2023/07/19 11:17:27;;;;;;;;;;;20.30;99.50;;;;;;5039862;28;20033;-55
2023/07/19 11:19:53;;;;;;;3.00;1.60;;;20.50;99.90;;;;;;5020474;28;19917;-54
2023/07/19 11:22:24;;;;;;;3.72;1.50;;;20.80;99.90;;;;;;5039518;28;20055;-54
2023/07/19 11:24:52;;;;;;;2.55;1.10;;;20.90;99.90;;;;;;5041396;28;20602;-55
2023/07/19 11:27:18;;;;;;;3.20;1.42;;;20.90;99.40;;;;;;5012230;28;20128;-53
2023/07/19 11:29:54;;;;;;;5.65;1.30;;;20.90;99.30;;;;;;5024471;28;20080;-54
2023/07/19 11:32:23;;;;;;;4.68;1.50;;;20.90;99.60;;;;;;5041110;28;20033;-55
2023/07/19 11:34:56;;;;;;;4.55;1.65;;;20.70;99.10;;;;;;5043712;28;20413;-55
2023/07/19 11:37:29;;;;;;;2.88;1.58;;;20.40;99.10;;;;;;5040940;28;20040;-55
2023/07/19 11:39:58;;;;;;;4.80;1.83;;;20.30;99.40;;;;;;5026977;28;20116;-54
2023/07/19 11:42:46;;;;;;;3.00;1.38;;;20.60;99.90;;;;;;5046669;28;20072;-55
2023/07/19 11:45:18;;;;;;;4.95;1.80;;;21.00;99.10;;;;;;5041110;28;20041;-55
2023/07/19 11:47:45;;;;;;;5.95;1.70;;;21.40;99.10;;;;;;5046097;28;20034;-55
2023/07/19 11:50:12;;;;;;;2.92;1.45;;;21.50;98.20;;;;;;5038201;28;20040;-55
2023/07/19 11:52:47;;;;;;;4.10;1.50;;;21.40;98.10;;;;;;5031352;28;20096;-55
2023/07/19 11:55:17;;;;;;;2.50;1.38;;;21.10;98.50;;;;;;5047059;28;20044;-55
2023/07/19 11:57:47;;;;;;;4.07;1.42;;;21.00;98.70;;;;;;5043741;28;20352;-54
2023/07/19 12:00:15;;;;;;;2.80;1.13;;;20.80;98.50;;;;;;5024431;28;20484;-54
2023/07/19 12:02:44;;;;;;;4.30;1.40;;;21.20;99.80;;;;;;5043175;28;20444;-54
2023/07/19 12:05:18;;;;;;;3.72;1.45;;;21.50;98.20;;;;;;5018057;28;20041;-55
2023/07/19 12:07:44;;;;;;;2.20;1.27;;;21.50;98.10;;;;;;5043488;28;20025;-55
2023/07/19 12:10:10;;;;;;;3.42;1.30;;;21.70;98.10;;;;;;5026933;28;20136;-54
2023/07/19 12:12:36;;;;;;;4.00;1.70;;;21.70;97.80;;;;;;5033049;28;20120;-55
2023/07/19 12:15:06;;;;;;;5.97;1.75;;;21.70;97.50;;;;;;5042294;28;20574;-56
2023/07/19 12:17:32;;;;;;;2.92;1.30;;;21.80;97.60;;;;;;5028252;28;20049;-55
2023/07/19 12:19:59;;;;;;;3.90;1.60;;;22.00;97.60;;;;;;5022478;28;20040;-55
2023/07/19 12:22:28;;;;;;;3.08;1.20;;;22.20;97.20;;;;;;5045795;28;20087;-56
2023/07/19 12:25:40;;;;;;;3.72;1.20;;;22.10;96.10;;;;;;5045148;28;20113;-53
2023/07/19 12:28:05;;;;;;;3.25;1.40;;;22.20;96.00;;;;;;5045194;28;20037;-55
2023/07/19 12:30:31;;;;;;;3.10;1.40;;;21.90;96.10;;;;;;5016104;28;20041;-56
2023/07/19 12:32:57;;;;;;;3.47;1.35;;;21.90;96.90;;;;;;5029359;28;20043;-55
2023/07/19 12:35:22;;;;;;;3.95;1.10;;;21.70;96.80;;;;;;5029068;28;20084;-55
2023/07/19 12:37:48;;;;;;;3.67;1.25;;;21.60;96.50;;;;;;5012791;28;20041;-55
2023/07/19 12:40:14;;;;;;;2.70;1.38;;;21.40;97.10;;;;;;5041611;28;20706;-55
2023/07/19 12:42:40;;;;;;;2.08;1.30;;;21.40;97.10;;;;;;5039361;28;20040;-55
2023/07/19 12:45:09;;;;;;;4.32;1.35;;;21.80;96.80;;;;;;5033188;28;20129;-55
2023/07/19 12:47:38;;;;;;;4.30;1.30;;;21.70;95.60;;;;;;5034355;28;20044;-53